createdAt,value
2022-08-01T00:02:22.696Z,1.90
2022-08-01T00:05:24.069Z,1.80
2022-08-01T00:08:25.617Z,1.95
2022-08-01T00:11:27.003Z,2.03
2022-08-01T00:14:32.599Z,1.73
2022-08-01T00:17:34.237Z,1.73
2022-08-01T00:20:35.537Z,1.92
2022-08-01T00:23:36.867Z,2.28
2022-08-01T00:26:38.155Z,2.08
2022-08-01T00:30:10.131Z,2.05
2022-08-01T00:33:00.743Z,1.88
2022-08-01T00:36:02.049Z,1.90
2022-08-01T00:39:03.571Z,1.77
2022-08-01T00:42:08.668Z,1.98
2022-08-01T00:45:10.250Z,2.03
2022-08-01T00:48:12.164Z,1.88
2022-08-01T00:51:13.718Z,1.80
2022-08-01T00:54:16.690Z,1.45
2022-08-01T00:57:39.970Z,1.60
2022-08-01T01:00:52.979Z,1.42
2022-08-01T01:03:58.985Z,1.60
2022-08-01T01:07:10.107Z,1.70
2022-08-01T01:10:16.373Z,1.33
2022-08-01T01:13:21.484Z,1.73
2022-08-01T01:16:23.388Z,1.48
2022-08-01T01:19:29.049Z,1.60
2022-08-01T01:22:30.319Z,1.70
2022-08-01T01:25:51.893Z,1.63
2022-08-01T01:29:12.035Z,1.35
2022-08-01T01:32:13.322Z,1.20
2022-08-01T01:35:22.252Z,1.25
2022-08-01T01:38:29.400Z,1.55
2022-08-01T01:41:31.280Z,1.20
2022-08-01T01:44:32.994Z,1.08
2022-08-01T01:47:35.198Z,0.93
2022-08-01T01:50:37.099Z,0.85
2022-08-01T01:53:39.288Z,1.10
2022-08-01T01:56:49.537Z,1.05
2022-08-01T01:59:51.750Z,1.15
2022-08-01T02:02:54.505Z,1.05
2022-08-01T02:05:56.225Z,1.70
2022-08-01T02:08:57.872Z,1.25
2022-08-01T02:12:07.821Z,1.00
2022-08-01T02:15:10.618Z,0.93
2022-08-01T02:18:13.688Z,0.93
2022-08-01T02:21:17.125Z,1.10
2022-08-01T02:24:30.482Z,1.13
2022-08-01T02:27:39.087Z,1.10
2022-08-01T02:30:43.896Z,1.15
2022-08-01T02:33:46.789Z,1.38
2022-08-01T02:36:49.082Z,0.98
2022-08-01T02:39:52.346Z,1.15
2022-08-01T02:42:55.376Z,1.08
2022-08-01T02:45:59.274Z,1.00
2022-08-01T02:49:02.187Z,1.08
2022-08-01T02:52:06.313Z,1.23
2022-08-01T02:55:09.162Z,1.08
2022-08-01T02:58:11.598Z,0.90
2022-08-01T03:01:14.857Z,0.98
2022-08-01T03:04:18.740Z,1.50
2022-08-01T03:07:20.634Z,1.40
2022-08-01T03:10:24.006Z,0.93
2022-08-01T03:13:26.272Z,0.90
2022-08-01T03:16:27.917Z,1.20
2022-08-01T03:19:30.327Z,0.95
2022-08-01T03:22:33.256Z,1.20
2022-08-01T03:25:36.234Z,1.00
2022-08-01T03:28:39.543Z,1.20
2022-08-01T03:31:43.763Z,1.30
2022-08-01T03:34:45.139Z,1.20
2022-08-01T03:38:14.274Z,1.08
2022-08-01T03:41:14.076Z,1.23
2022-08-01T03:44:16.278Z,1.30
2022-08-01T03:47:17.773Z,1.25
2022-08-01T03:50:21.026Z,1.33
2022-08-01T03:53:23.919Z,1.33
2022-08-01T03:56:25.812Z,1.10
2022-08-01T03:59:27.592Z,1.15
2022-08-01T04:02:29.480Z,1.13
2022-08-01T04:05:32.310Z,1.17
2022-08-01T04:08:37.310Z,0.93
2022-08-01T04:11:39.145Z,1.30
2022-08-01T04:14:40.486Z,1.10
2022-08-01T04:17:41.774Z,1.20
2022-08-01T04:20:43.070Z,1.10
2022-08-01T04:23:45.500Z,0.98
2022-08-01T04:26:48.537Z,1.20
2022-08-01T04:29:52.480Z,1.10
2022-08-01T04:36:01.737Z,1.10
2022-08-01T04:39:06.672Z,1.10
2022-08-01T04:42:08.401Z,1.13
2022-08-01T04:45:10.061Z,0.85
2022-08-01T04:48:11.860Z,1.08
2022-08-01T04:51:16.041Z,1.00
2022-08-01T04:54:17.499Z,1.08
2022-08-01T04:57:18.806Z,1.13
2022-08-01T05:00:20.112Z,1.48
2022-08-01T05:03:21.396Z,1.10
2022-08-01T05:06:22.675Z,1.00
2022-08-01T05:09:27.104Z,1.25
2022-08-01T05:12:32.694Z,1.15
2022-08-01T05:15:35.542Z,0.98
2022-08-01T05:18:36.892Z,1.10
2022-08-01T05:21:38.523Z,1.13
2022-08-01T05:24:40.361Z,1.20
2022-08-01T05:27:42.990Z,1.20
2022-08-01T05:30:45.450Z,1.20
2022-08-01T05:33:46.762Z,1.00
2022-08-01T05:36:48.174Z,1.10
2022-08-01T05:39:49.585Z,1.20
2022-08-01T05:42:50.958Z,1.35
2022-08-01T05:45:52.345Z,1.10
2022-08-01T05:48:53.793Z,1.27
2022-08-01T05:51:55.115Z,1.17
2022-08-01T05:54:56.414Z,1.10
2022-08-01T05:57:57.695Z,1.05
2022-08-01T06:00:59.265Z,1.17
2022-08-01T06:04:00.615Z,1.20
2022-08-01T06:07:01.903Z,1.10
2022-08-01T06:10:04.056Z,1.17
2022-08-01T06:13:05.368Z,1.10
2022-08-01T06:16:06.714Z,1.10
2022-08-01T06:19:08.031Z,0.98
2022-08-01T06:22:09.416Z,1.00
2022-08-01T06:25:10.787Z,1.13
2022-08-01T06:28:12.211Z,0.93
2022-08-01T06:31:14.718Z,1.02
2022-08-01T06:34:16.328Z,1.02
2022-08-01T06:37:17.648Z,1.02
2022-08-01T06:40:19.046Z,1.00
2022-08-01T06:43:20.458Z,1.00
2022-08-01T06:46:21.829Z,1.23
2022-08-01T06:49:23.207Z,0.93
2022-08-01T06:52:24.741Z,1.10
2022-08-01T06:55:26.093Z,1.30
2022-08-01T06:58:31.612Z,0.95
2022-08-01T07:01:35.013Z,1.10
2022-08-01T07:04:36.655Z,0.95
2022-08-01T07:07:38.189Z,1.20
2022-08-01T07:10:39.513Z,0.95
2022-08-01T07:13:43.958Z,1.02
2022-08-01T07:16:46.806Z,1.30
2022-08-01T07:19:48.498Z,0.98
2022-08-01T07:22:51.041Z,0.90
2022-08-01T07:25:55.904Z,1.13
2022-08-01T07:28:59.450Z,1.23
2022-08-01T07:32:00.773Z,1.30
2022-08-01T07:35:02.733Z,1.17
2022-08-01T07:38:04.026Z,1.20
2022-08-01T07:41:05.344Z,1.02
2022-08-01T07:44:06.642Z,1.10
2022-08-01T07:47:07.988Z,1.27
2022-08-01T07:50:09.528Z,1.20
2022-08-01T07:53:11.350Z,1.20
2022-08-01T07:56:12.637Z,1.25
2022-08-01T07:59:13.930Z,1.20
2022-08-01T08:02:25.459Z,1.10
2022-08-01T08:05:57.817Z,1.20
2022-08-01T08:08:48.781Z,1.13
2022-08-01T08:11:50.126Z,1.10
2022-08-01T08:14:51.685Z,1.00
2022-08-01T08:17:54.983Z,1.33
2022-08-01T08:20:56.752Z,1.23
2022-08-01T08:24:16.877Z,1.23
2022-08-01T08:27:19.196Z,1.33
2022-08-01T08:30:20.780Z,1.20
2022-08-01T08:33:23.214Z,1.40
2022-08-01T08:36:28.547Z,1.10
2022-08-01T08:39:42.131Z,1.08
2022-08-01T08:42:43.810Z,1.13
2022-08-01T08:45:59.754Z,1.13
2022-08-01T08:49:03.235Z,1.15
2022-08-01T08:52:09.168Z,1.20
2022-08-01T08:55:12.473Z,1.20
2022-08-01T08:58:15.434Z,1.30
2022-08-01T09:01:18.528Z,1.30
2022-08-01T09:04:25.864Z,1.30
2022-08-01T09:07:27.927Z,1.30
2022-08-01T09:10:29.231Z,1.40
2022-08-01T09:13:30.752Z,1.20
2022-08-01T09:16:32.836Z,1.23
2022-08-01T09:19:40.423Z,1.33
2022-08-01T09:22:47.456Z,1.33
2022-08-01T09:25:52.989Z,1.13
2022-08-01T09:28:58.390Z,1.13
2022-08-01T09:32:05.788Z,1.05
2022-08-01T09:35:23.730Z,1.05
2022-08-01T09:38:28.026Z,1.05
2022-08-01T09:41:40.008Z,1.13
2022-08-01T09:44:44.780Z,1.00
2022-08-01T09:47:56.060Z,1.10
2022-08-01T09:51:03.877Z,1.10
2022-08-01T09:54:09.632Z,1.10
2022-08-01T09:57:15.919Z,1.00
2022-08-01T10:00:35.583Z,1.10
2022-08-01T10:03:39.849Z,1.02
2022-08-01T10:06:43.910Z,0.82
2022-08-01T10:09:46.274Z,0.93
2022-08-01T10:12:48.437Z,1.02
2022-08-01T10:15:50.541Z,1.02
2022-08-01T10:18:52.797Z,1.02
2022-08-01T10:21:58.484Z,1.05
2022-08-01T10:25:02.963Z,1.10
2022-08-01T10:28:10.976Z,1.13
2022-08-01T10:31:14.456Z,1.05
2022-08-01T10:34:18.425Z,1.10
2022-08-01T10:37:24.710Z,1.10
2022-08-01T10:40:30.847Z,1.10
2022-08-01T10:43:33.075Z,1.10
2022-08-01T10:46:42.227Z,1.10
2022-08-01T10:49:57.562Z,1.10
2022-08-01T10:53:31.805Z,1.15
2022-08-01T10:56:45.051Z,1.10
2022-08-01T11:00:00.955Z,1.00
2022-08-01T11:03:04.568Z,0.90
2022-08-01T11:06:06.308Z,1.15
2022-08-01T11:09:12.708Z,0.90
2022-08-01T11:12:24.562Z,0.90
2022-08-01T11:15:29.779Z,0.90
2022-08-01T11:18:32.685Z,0.90
2022-08-01T11:21:57.382Z,0.93
2022-08-01T11:25:02.145Z,0.93
2022-08-01T11:28:25.053Z,1.00
2022-08-01T11:31:37.137Z,1.00
2022-08-01T11:34:56.265Z,1.00
2022-08-01T11:37:57.670Z,0.95
2022-08-01T11:41:15.006Z,0.77
2022-08-01T11:44:20.846Z,0.90
2022-08-01T11:47:42.453Z,1.10
2022-08-01T11:50:43.839Z,1.00
2022-08-01T11:53:48.318Z,1.02
2022-08-01T11:56:49.620Z,1.10
2022-08-01T12:00:02.672Z,0.93
2022-08-01T12:03:06.651Z,0.95
2022-08-01T12:06:09.113Z,1.00
2022-08-01T12:09:21.464Z,1.10
2022-08-01T12:12:22.787Z,1.13
2022-08-01T12:15:25.467Z,0.90
2022-08-01T12:18:26.846Z,0.90
2022-08-01T12:21:28.200Z,1.10
2022-08-01T12:24:32.291Z,0.90
2022-08-01T12:27:34.194Z,1.02
2022-08-01T12:30:36.669Z,1.00
2022-08-01T12:33:38.304Z,1.25
2022-08-01T12:36:39.843Z,0.80
2022-08-01T12:39:41.389Z,0.80
2022-08-01T12:42:44.763Z,1.02
2022-08-01T12:45:54.386Z,0.90
2022-08-01T12:48:58.653Z,0.95
2022-08-01T12:52:00.209Z,1.00
2022-08-01T12:55:01.606Z,0.88
2022-08-01T12:58:15.899Z,1.00
2022-08-01T13:01:26.044Z,0.95
2022-08-01T13:04:27.498Z,0.95
2022-08-01T13:07:58.429Z,0.90
2022-08-01T13:11:06.780Z,0.90
2022-08-01T13:14:08.238Z,1.00
2022-08-01T13:17:09.545Z,0.95
2022-08-01T13:20:22.982Z,1.00
2022-08-01T13:24:03.736Z,1.00
2022-08-01T13:26:48.053Z,0.90
2022-08-01T13:29:50.747Z,0.80
2022-08-01T13:32:59.251Z,0.90
2022-08-01T13:36:00.560Z,0.90
2022-08-01T13:39:20.867Z,0.93
2022-08-01T13:42:22.191Z,1.10
2022-08-01T13:45:24.279Z,0.82
2022-08-01T13:48:28.070Z,1.00
2022-08-01T13:54:32.655Z,0.80
2022-08-01T13:57:36.753Z,0.95
2022-08-01T14:00:38.564Z,0.80
2022-08-01T14:03:39.934Z,1.13
2022-08-01T14:06:41.228Z,1.02
2022-08-01T14:10:04.337Z,1.15
2022-08-01T14:13:06.186Z,0.90
2022-08-01T14:16:07.630Z,0.82
2022-08-01T14:19:09.163Z,0.80
2022-08-01T14:22:10.436Z,0.80
2022-08-01T14:25:11.885Z,1.00
2022-08-01T14:28:26.286Z,0.98
2022-08-01T14:31:32.217Z,0.90
2022-08-01T14:34:35.552Z,0.90
2022-08-01T14:37:38.659Z,1.00
2022-08-01T14:40:41.539Z,0.80
2022-08-01T14:43:43.072Z,0.90
2022-08-01T14:46:58.056Z,0.77
2022-08-01T14:50:00.176Z,0.75
2022-08-01T14:53:01.504Z,1.00
2022-08-01T14:56:03.994Z,0.98
2022-08-01T14:59:05.343Z,0.90
2022-08-01T15:02:23.762Z,0.82
2022-08-01T15:05:25.082Z,0.73
2022-08-01T15:08:27.343Z,0.95
2022-08-01T15:11:34.499Z,0.82
2022-08-01T15:14:54.251Z,0.90
2022-08-01T15:17:55.634Z,0.98
2022-08-01T15:20:58.160Z,0.93
2022-08-01T15:24:00.108Z,0.82
2022-08-01T15:27:01.468Z,1.15
2022-08-01T15:30:04.345Z,1.23
2022-08-01T15:33:06.153Z,0.90
2022-08-01T15:36:07.577Z,0.85
2022-08-01T15:39:13.890Z,1.00
2022-08-01T15:42:19.295Z,1.00
2022-08-01T15:45:46.264Z,1.00
2022-08-01T15:48:46.469Z,1.02
2022-08-01T15:51:47.809Z,1.40
2022-08-01T15:54:49.350Z,0.80
2022-08-01T15:57:50.699Z,1.40
2022-08-01T16:00:52.007Z,0.93
2022-08-01T16:03:56.971Z,0.90
2022-08-01T16:06:58.427Z,1.20
2022-08-01T16:09:59.822Z,1.10
2022-08-01T16:13:06.777Z,1.10
2022-08-01T16:16:09.428Z,1.23
2022-08-01T16:19:10.762Z,1.13
2022-08-01T16:22:20.863Z,1.13
2022-08-01T16:25:22.209Z,1.02
2022-08-01T16:28:24.005Z,0.98
2022-08-01T16:31:25.462Z,1.02
2022-08-01T16:34:38.412Z,1.25
2022-08-01T16:37:43.402Z,0.90
2022-08-01T16:40:47.184Z,0.90
2022-08-01T16:43:53.295Z,0.82
2022-08-01T16:46:55.443Z,1.02
2022-08-01T16:49:56.936Z,1.08
2022-08-01T16:52:58.240Z,1.10
2022-08-01T16:55:59.566Z,1.25
2022-08-01T16:59:00.892Z,1.17
2022-08-01T17:02:02.661Z,1.02
2022-08-01T17:05:06.918Z,0.93
2022-08-01T17:08:10.757Z,1.05
2022-08-01T17:11:12.560Z,1.17
2022-08-01T17:14:14.191Z,1.52
2022-08-01T17:17:15.506Z,1.00
2022-08-01T17:20:17.343Z,1.08
2022-08-01T17:23:19.125Z,1.20
2022-08-01T17:26:20.637Z,1.20
2022-08-01T17:29:22.054Z,1.10
2022-08-01T17:32:23.539Z,1.00
2022-08-01T17:35:24.862Z,1.05
2022-08-01T17:38:26.238Z,1.15
2022-08-01T17:41:27.533Z,0.98
2022-08-01T17:44:28.923Z,1.00
2022-08-01T17:47:49.657Z,0.95
2022-08-01T17:50:51.887Z,0.82
2022-08-01T17:53:57.160Z,1.05
2022-08-01T17:56:59.165Z,1.27
2022-08-01T18:00:00.553Z,1.33
2022-08-01T18:03:01.882Z,1.13
2022-08-01T18:06:03.582Z,1.00
2022-08-01T18:09:04.915Z,1.10
2022-08-01T18:12:10.906Z,1.10
2022-08-01T18:15:15.113Z,1.17
2022-08-01T18:18:19.558Z,1.33
2022-08-01T18:21:37.609Z,1.10
2022-08-01T18:24:42.316Z,1.20
2022-08-01T18:28:22.736Z,1.27
2022-08-01T18:31:06.204Z,1.15
2022-08-01T18:34:07.674Z,0.90
2022-08-01T18:37:12.226Z,1.00
2022-08-01T18:40:20.912Z,1.25
2022-08-01T18:43:24.267Z,1.00
2022-08-01T18:46:25.638Z,1.10
2022-08-01T18:49:28.832Z,0.95
2022-08-01T18:52:31.852Z,1.10
2022-08-01T18:55:33.333Z,1.42
2022-08-01T18:58:34.643Z,1.50
2022-08-01T19:01:36.071Z,1.25
2022-08-01T19:04:37.414Z,1.08
2022-08-01T19:08:05.012Z,1.02
2022-08-01T19:11:00.047Z,1.02
2022-08-01T19:14:02.352Z,1.25
2022-08-01T19:17:04.042Z,1.42
2022-08-01T19:20:05.983Z,1.02
2022-08-01T19:23:26.027Z,1.27
2022-08-01T19:26:27.447Z,1.40
2022-08-01T19:29:35.644Z,1.33
2022-08-01T19:32:38.268Z,1.25
2022-08-01T19:35:39.696Z,1.40
2022-08-01T19:38:41.423Z,1.65
2022-08-01T19:41:43.510Z,1.70
2022-08-01T19:44:44.870Z,1.80
2022-08-01T19:47:53.978Z,1.50
2022-08-01T19:51:01.627Z,2.03
2022-08-01T19:54:06.507Z,1.73
2022-08-01T19:57:08.592Z,1.95
2022-08-01T20:00:10.456Z,2.03
2022-08-01T20:03:14.952Z,2.17
2022-08-01T20:06:16.819Z,1.92
2022-08-01T20:09:18.183Z,1.95
2022-08-01T20:12:20.491Z,2.28
2022-08-01T20:15:22.280Z,2.15
2022-08-01T20:18:24.443Z,1.90
2022-08-01T20:21:26.440Z,1.83
2022-08-01T20:24:28.990Z,2.00
2022-08-01T20:27:31.394Z,1.98
2022-08-01T20:30:32.849Z,2.05
2022-08-01T20:33:35.489Z,2.10
2022-08-01T20:36:37.647Z,2.20
2022-08-01T20:39:41.329Z,1.83
2022-08-01T20:42:45.647Z,2.10
2022-08-01T20:45:47.158Z,2.20
2022-08-01T20:48:49.020Z,2.00
2022-08-01T20:51:52.505Z,2.10
2022-08-01T20:54:55.535Z,2.00
2022-08-01T20:57:57.054Z,2.38
2022-08-01T21:01:09.760Z,2.17
2022-08-01T21:04:11.263Z,2.40
2022-08-01T21:07:23.483Z,2.10
2022-08-01T21:10:28.158Z,2.13
2022-08-01T21:13:35.237Z,2.08
2022-08-01T21:16:39.283Z,2.10
2022-08-01T21:19:42.471Z,2.20
2022-08-01T21:22:51.952Z,1.95
2022-08-01T21:25:53.977Z,2.40
2022-08-01T21:28:58.293Z,2.22
2022-08-01T21:32:11.469Z,2.05
2022-08-01T21:35:16.264Z,2.58
2022-08-01T21:38:20.028Z,3.08
2022-08-01T21:41:56.215Z,2.50
2022-08-01T21:44:44.082Z,2.20
2022-08-01T21:47:45.747Z,2.63
2022-08-01T21:50:54.335Z,2.65
2022-08-01T21:54:09.889Z,2.25
2022-08-01T21:57:25.137Z,2.55
2022-08-01T22:00:26.762Z,2.67
2022-08-01T22:03:35.583Z,2.42
2022-08-01T22:06:37.469Z,2.47
2022-08-01T22:09:39.778Z,2.20
2022-08-01T22:12:41.227Z,2.53
2022-08-01T22:15:45.179Z,2.70
2022-08-01T22:18:46.959Z,2.53
2022-08-01T22:21:48.369Z,2.25
2022-08-01T22:24:50.984Z,2.35
2022-08-01T22:28:09.434Z,2.45
2022-08-01T22:31:12.619Z,2.58
2022-08-01T22:34:14.156Z,2.47
2022-08-01T22:37:15.527Z,2.40
2022-08-01T22:40:16.831Z,2.60
2022-08-01T22:43:23.655Z,2.40
2022-08-01T22:46:37.062Z,2.22
2022-08-01T22:49:42.469Z,2.45
2022-08-01T22:52:49.641Z,2.55
2022-08-01T22:55:58.507Z,2.53
2022-08-01T22:59:03.753Z,2.28
2022-08-01T23:02:07.244Z,2.60
2022-08-01T23:05:11.118Z,2.63
2022-08-01T23:08:14.808Z,2.38
2022-08-01T23:14:18.874Z,2.55
2022-08-01T23:17:27.733Z,2.50
2022-08-01T23:20:31.070Z,2.65
2022-08-01T23:23:33.485Z,2.08
2022-08-01T23:26:36.134Z,2.15
2022-08-01T23:29:37.439Z,2.60
2022-08-01T23:32:39.034Z,2.40
2022-08-01T23:35:40.398Z,2.45
2022-08-01T23:38:41.678Z,2.42
2022-08-01T23:41:57.242Z,2.38
2022-08-01T23:44:59.994Z,2.53
2022-08-01T23:48:01.402Z,2.13
2022-08-01T23:51:04.077Z,2.65
2022-08-01T23:54:05.490Z,2.40
2022-08-01T23:57:06.793Z,2.50
